KABY/ABY METAR and TAF weather

Enter ICAO airport designator
Station Type Date Time Source
KABY METAR 2020/01/19 22:53 UTC NOAA

KABY 192253Z 30004KT 10SM CLR 10/M03 A3018 RMK AO2 SLP218 T01001028


Station Type Date Time Source
KABY Decoded METAR 2020/01/19 22:53 UTC NOAA

ALBANY SOUTHWEST GEORGIA, GA, United States (KABY) 31-32N 084-12W 58M
Jan 19, 2020 - 05:53 PM EST / 2020.01.19 2253 UTC
Wind: from the WNW (300 degrees) at 5 MPH (4 KT):0
Visibility: 10 mile(s):0
Sky conditions: clear
Temperature: 50.0 F (10.0 C)
Dew Point: 27.0 F (-2.8 C)
Relative Humidity: 40%
Pressure (altimeter): 30.18 in. Hg (1022 hPa)
ob: KABY 192253Z 30004KT 10SM CLR 10/M03 A3018 RMK AO2 SLP218 T01001028
cycle: 23

Station Type Date Time Source
KABY TAF 2020/01/19 22:22 UTC NOAA

TAF
AMD KABY 192220Z 1922/2018 32010G15KT P6SM SCT250
FM200000 36007KT P6SM SKC

Example: see airport list